createdAt,value
2023-02-09T00:01:11.896Z,33.47
2023-02-09T00:03:38.692Z,33.50
2023-02-09T00:06:08.481Z,31.70
2023-02-09T00:08:35.718Z,33.40
2023-02-09T00:11:20.874Z,34.13
2023-02-09T00:13:47.637Z,34.17
2023-02-09T00:16:16.912Z,34.80
2023-02-09T00:18:46.154Z,33.60
2023-02-09T00:21:12.981Z,33.97
2023-02-09T00:23:40.597Z,34.50
2023-02-09T00:26:10.257Z,34.00
2023-02-09T00:28:37.129Z,34.60
2023-02-09T00:31:10.673Z,32.97
2023-02-09T00:33:37.668Z,34.23
2023-02-09T00:36:06.288Z,34.17
2023-02-09T00:38:33.738Z,33.13
2023-02-09T00:41:00.575Z,35.00
2023-02-09T00:43:27.415Z,34.23
2023-02-09T00:45:54.612Z,34.03
2023-02-09T00:48:21.555Z,35.43
2023-02-09T00:50:49.781Z,34.10
2023-02-09T00:53:16.541Z,33.23
2023-02-09T00:55:45.763Z,33.70
2023-02-09T00:58:12.658Z,35.33
2023-02-09T01:00:39.431Z,34.67
2023-02-09T01:03:08.442Z,34.27
2023-02-09T01:05:40.669Z,33.90
2023-02-09T01:08:07.565Z,33.40
2023-02-09T01:10:36.542Z,34.80
2023-02-09T01:13:03.311Z,31.67
2023-02-09T01:15:30.117Z,33.30
2023-02-09T01:17:58.590Z,33.47
2023-02-09T01:20:27.529Z,32.93
2023-02-09T01:22:54.390Z,32.43
2023-02-09T01:25:21.271Z,32.87
2023-02-09T01:27:48.051Z,34.27
2023-02-09T01:30:14.990Z,31.60
2023-02-09T01:32:44.391Z,31.73
2023-02-09T01:35:11.445Z,34.53
2023-02-09T01:37:40.454Z,31.53
2023-02-09T01:40:07.928Z,32.43
2023-02-09T01:42:39.494Z,32.20
2023-02-09T01:45:21.468Z,33.17
2023-02-09T01:47:54.440Z,31.33
2023-02-09T01:50:25.524Z,33.00
2023-02-09T01:52:54.806Z,33.73
2023-02-09T01:55:24.487Z,31.17
2023-02-09T01:58:00.042Z,33.60
2023-02-09T02:00:29.342Z,31.13
2023-02-09T02:03:04.742Z,31.87
2023-02-09T02:05:35.015Z,32.73
2023-02-09T02:08:17.602Z,33.00
2023-02-09T02:10:47.199Z,32.00
2023-02-09T02:13:14.109Z,31.57
2023-02-09T02:16:03.046Z,31.37
2023-02-09T02:18:35.310Z,31.13
2023-02-09T02:21:11.293Z,30.47
2023-02-09T02:24:13.831Z,30.73
2023-02-09T02:26:58.889Z,30.60
2023-02-09T02:30:05.454Z,31.47
2023-02-09T02:32:44.561Z,30.43
2023-02-09T02:35:36.860Z,30.43
2023-02-09T02:38:18.201Z,31.87
2023-02-09T02:41:05.281Z,30.93
2023-02-09T02:43:55.745Z,31.20
2023-02-09T02:46:57.301Z,30.73
2023-02-09T02:49:38.298Z,32.10
2023-02-09T02:52:08.972Z,31.47
2023-02-09T02:54:42.681Z,32.53
2023-02-09T02:57:14.594Z,31.17
2023-02-09T02:59:47.736Z,32.07
2023-02-09T03:02:30.961Z,32.53
2023-02-09T03:04:59.994Z,30.87
2023-02-09T03:07:29.267Z,32.07
2023-02-09T03:09:58.286Z,32.43
2023-02-09T03:12:53.775Z,31.67
2023-02-09T03:15:51.217Z,30.30
2023-02-09T03:18:57.233Z,32.00
2023-02-09T03:21:45.124Z,30.63
2023-02-09T03:24:32.541Z,31.13
2023-02-09T03:27:25.245Z,31.03
2023-02-09T03:29:54.304Z,30.30
2023-02-09T03:32:21.339Z,31.83
2023-02-09T03:34:48.166Z,32.13
2023-02-09T03:37:14.999Z,32.37
2023-02-09T03:39:43.940Z,30.57
2023-02-09T03:42:12.910Z,31.47
2023-02-09T03:44:39.677Z,32.20
2023-02-09T03:47:10.455Z,32.07
2023-02-09T03:49:40.633Z,32.10
2023-02-09T03:52:13.590Z,30.93
2023-02-09T03:54:40.443Z,31.07
2023-02-09T03:57:07.492Z,31.60
2023-02-09T03:59:37.738Z,31.60
2023-02-09T04:02:08.124Z,31.37
2023-02-09T04:04:34.975Z,31.07
2023-02-09T04:07:04.132Z,31.57
2023-02-09T04:09:37.582Z,29.27
2023-02-09T04:12:04.681Z,30.93
2023-02-09T04:14:31.492Z,30.57
2023-02-09T04:17:00.742Z,31.00
2023-02-09T04:19:29.767Z,32.27
2023-02-09T04:21:56.552Z,32.83
2023-02-09T04:24:23.404Z,30.43
2023-02-09T04:26:50.118Z,31.10
2023-02-09T04:29:16.911Z,31.20
2023-02-09T04:31:46.084Z,30.33
2023-02-09T04:34:21.166Z,32.40
2023-02-09T04:36:47.945Z,30.93
2023-02-09T04:39:14.786Z,30.97
2023-02-09T04:41:41.524Z,31.33
2023-02-09T04:44:11.112Z,30.67
2023-02-09T04:46:37.886Z,31.90
2023-02-09T04:49:06.897Z,30.37
2023-02-09T04:51:33.677Z,29.83
2023-02-09T04:54:04.915Z,30.77
2023-02-09T04:56:31.668Z,31.63
2023-02-09T04:59:17.314Z,30.73
2023-02-09T05:01:46.683Z,30.17
2023-02-09T05:04:13.434Z,32.97
2023-02-09T05:06:40.206Z,30.07
2023-02-09T05:09:06.974Z,30.87
2023-02-09T05:11:36.213Z,32.77
2023-02-09T05:14:05.247Z,31.93
2023-02-09T05:16:32.041Z,32.23
2023-02-09T05:18:58.861Z,32.97
2023-02-09T05:21:25.653Z,31.83
2023-02-09T05:23:52.400Z,30.47
2023-02-09T05:26:21.425Z,31.73
2023-02-09T05:28:48.177Z,32.53
2023-02-09T05:31:18.046Z,32.50
2023-02-09T05:33:44.975Z,31.30
2023-02-09T05:36:12.905Z,32.77
2023-02-09T05:38:40.023Z,32.57
2023-02-09T05:41:36.623Z,33.50
2023-02-09T05:44:07.912Z,30.47
2023-02-09T05:46:34.657Z,33.30
2023-02-09T05:49:01.377Z,32.40
2023-02-09T05:51:28.127Z,32.73
2023-02-09T05:53:57.386Z,33.07
2023-02-09T05:56:26.375Z,34.10
2023-02-09T05:58:53.126Z,32.73
2023-02-09T06:01:22.118Z,34.37
2023-02-09T06:03:48.923Z,32.47
2023-02-09T06:06:18.106Z,32.77
2023-02-09T06:08:44.889Z,32.60
2023-02-09T06:11:11.638Z,31.93
2023-02-09T06:13:38.384Z,31.97
2023-02-09T06:16:05.373Z,32.27
2023-02-09T06:18:32.156Z,31.40
2023-02-09T06:20:59.223Z,32.30
2023-02-09T06:23:25.981Z,33.60
2023-02-09T06:25:53.251Z,34.10
2023-02-09T06:28:20.627Z,33.00
2023-02-09T06:30:52.988Z,33.10
2023-02-09T06:33:24.684Z,33.00
2023-02-09T06:35:52.399Z,32.23
2023-02-09T06:38:19.371Z,32.93
2023-02-09T06:40:47.241Z,32.07
2023-02-09T06:43:16.565Z,31.17
2023-02-09T06:45:43.387Z,33.70
2023-02-09T06:48:12.581Z,34.13
2023-02-09T06:50:39.939Z,32.60
2023-02-09T06:53:06.852Z,32.30
2023-02-09T06:55:34.185Z,35.03
2023-02-09T06:58:03.584Z,32.20
2023-02-09T07:00:32.897Z,33.53
2023-02-09T07:02:59.864Z,31.40
2023-02-09T07:05:31.483Z,32.03
2023-02-09T07:07:58.341Z,32.90
2023-02-09T07:10:27.709Z,34.50
2023-02-09T07:12:57.322Z,32.40
2023-02-09T07:15:24.138Z,33.30
2023-02-09T07:17:53.278Z,34.60
2023-02-09T07:20:22.270Z,33.00
2023-02-09T07:22:51.509Z,34.90
2023-02-09T07:25:18.328Z,32.83
2023-02-09T07:27:45.250Z,33.17
2023-02-09T07:30:17.669Z,33.00
2023-02-09T07:32:44.499Z,34.03
2023-02-09T07:35:11.247Z,32.23
2023-02-09T07:37:38.004Z,33.10
2023-02-09T07:40:05.032Z,34.57
2023-02-09T07:42:31.864Z,34.13
2023-02-09T07:44:58.643Z,32.97
2023-02-09T07:47:25.436Z,32.53
2023-02-09T07:49:52.269Z,32.80
2023-02-09T07:52:21.386Z,32.97
2023-02-09T07:54:50.574Z,33.57
2023-02-09T07:57:17.341Z,33.43
2023-02-09T07:59:44.120Z,34.23
2023-02-09T08:02:17.645Z,34.03
2023-02-09T08:04:44.764Z,35.27
2023-02-09T08:07:11.560Z,34.63
2023-02-09T08:09:38.308Z,34.27
2023-02-09T08:12:05.397Z,33.70
2023-02-09T08:14:39.961Z,33.03
2023-02-09T08:17:20.471Z,35.60
2023-02-09T08:19:50.373Z,33.53
2023-02-09T08:22:17.153Z,33.30
2023-02-09T08:24:43.912Z,33.67
2023-02-09T08:27:10.718Z,32.70
2023-02-09T08:29:37.490Z,34.07
2023-02-09T08:32:06.548Z,36.23
2023-02-09T08:34:33.341Z,33.73
2023-02-09T08:37:00.138Z,35.70
2023-02-09T08:39:26.923Z,34.80
2023-02-09T08:41:53.689Z,35.10
2023-02-09T08:44:20.483Z,35.57
2023-02-09T08:46:49.728Z,34.50
2023-02-09T08:49:18.813Z,36.30
2023-02-09T08:51:47.763Z,35.10
2023-02-09T08:54:15.876Z,34.93
2023-02-09T08:56:44.203Z,35.00
2023-02-09T08:59:11.104Z,35.40
2023-02-09T09:01:40.495Z,32.40
2023-02-09T09:04:10.098Z,35.07
2023-02-09T09:06:37.091Z,33.27
2023-02-09T09:09:06.438Z,37.17
2023-02-09T09:11:33.281Z,33.43
2023-02-09T09:14:00.063Z,34.50
2023-02-09T09:16:26.962Z,35.10
2023-02-09T09:18:53.764Z,33.73
2023-02-09T09:21:23.011Z,35.57
2023-02-09T09:23:49.941Z,33.73
2023-02-09T09:26:17.100Z,33.07
2023-02-09T09:28:46.620Z,32.53
2023-02-09T09:31:14.941Z,31.90
2023-02-09T09:33:41.973Z,33.07
2023-02-09T09:36:11.342Z,33.13
2023-02-09T09:38:38.789Z,34.93
2023-02-09T09:41:06.529Z,32.57
2023-02-09T09:43:39.852Z,32.27
2023-02-09T09:46:09.929Z,31.80
2023-02-09T09:48:39.536Z,32.07
2023-02-09T09:51:12.987Z,29.80
2023-02-09T09:53:39.759Z,30.97
2023-02-09T09:56:10.158Z,29.90
2023-02-09T09:58:40.006Z,30.60
2023-02-09T10:01:10.423Z,31.53
2023-02-09T10:03:41.967Z,31.67
2023-02-09T10:06:18.556Z,28.13
2023-02-09T10:09:04.004Z,28.40
2023-02-09T10:11:43.917Z,28.90
2023-02-09T10:14:10.810Z,29.07
2023-02-09T10:16:40.825Z,30.03
2023-02-09T10:19:29.252Z,29.07
2023-02-09T10:21:58.692Z,27.23
2023-02-09T10:24:27.270Z,27.20
2023-02-09T10:27:15.455Z,26.73
2023-02-09T10:29:42.478Z,26.57
2023-02-09T10:32:29.045Z,26.17
2023-02-09T10:35:04.272Z,24.00
2023-02-09T10:37:36.452Z,27.07
2023-02-09T10:40:25.075Z,27.20
2023-02-09T10:43:05.809Z,24.37
2023-02-09T10:45:40.867Z,25.47
2023-02-09T10:48:13.880Z,24.73
2023-02-09T10:50:57.263Z,24.20
2023-02-09T10:53:26.853Z,23.27
2023-02-09T10:56:12.162Z,21.93
2023-02-09T10:58:38.935Z,23.77
2023-02-09T11:01:11.820Z,23.80
2023-02-09T11:04:05.944Z,23.77
2023-02-09T11:06:52.434Z,24.43
2023-02-09T11:09:29.784Z,25.17
2023-02-09T11:11:56.616Z,25.03
2023-02-09T11:14:30.664Z,26.07
2023-02-09T11:17:36.417Z,24.40
2023-02-09T11:20:04.740Z,24.67
2023-02-09T11:22:49.968Z,23.93
2023-02-09T11:25:35.130Z,24.17
2023-02-09T11:28:16.317Z,25.00
2023-02-09T11:31:04.083Z,24.87
2023-02-09T11:33:44.032Z,23.00
2023-02-09T11:36:47.064Z,23.67
2023-02-09T11:40:12.190Z,23.30
2023-02-09T11:42:44.318Z,21.73
2023-02-09T11:45:46.276Z,23.30
2023-02-09T11:48:20.336Z,22.23
2023-02-09T11:51:16.649Z,21.20
2023-02-09T11:54:03.906Z,19.97
2023-02-09T11:56:31.829Z,20.77
2023-02-09T11:59:08.254Z,20.23
2023-02-09T12:01:56.763Z,20.50
2023-02-09T12:04:42.540Z,20.13
2023-02-09T12:07:20.617Z,18.60
2023-02-09T12:10:05.485Z,19.83
2023-02-09T12:12:44.419Z,19.87
2023-02-09T12:15:17.456Z,19.73
2023-02-09T12:17:51.497Z,19.50
2023-02-09T12:20:29.153Z,18.80
2023-02-09T12:23:02.951Z,18.53
2023-02-09T12:25:33.817Z,18.27
2023-02-09T12:28:11.997Z,17.83
2023-02-09T12:30:44.815Z,17.83
2023-02-09T12:33:23.462Z,18.17
2023-02-09T12:36:13.794Z,17.37
2023-02-09T12:38:40.561Z,17.93
2023-02-09T12:41:10.222Z,17.60
2023-02-09T12:43:42.110Z,17.70
2023-02-09T12:46:18.279Z,16.43
2023-02-09T12:48:52.094Z,16.93
2023-02-09T12:51:41.688Z,15.37
2023-02-09T12:54:48.090Z,15.93
2023-02-09T12:57:23.894Z,15.53
2023-02-09T12:59:51.072Z,15.90
2023-02-09T13:02:59.937Z,16.33
2023-02-09T13:05:33.712Z,15.57
2023-02-09T13:08:18.496Z,16.57
2023-02-09T13:10:58.481Z,14.57
2023-02-09T13:13:58.406Z,15.37
2023-02-09T13:16:25.225Z,14.90
2023-02-09T13:19:11.256Z,15.47
2023-02-09T13:21:53.477Z,14.43
2023-02-09T13:24:23.406Z,14.07
2023-02-09T13:26:53.508Z,13.50
2023-02-09T13:29:22.235Z,14.33
2023-02-09T13:31:54.988Z,14.30
2023-02-09T13:34:30.376Z,13.80
2023-02-09T13:37:06.315Z,14.00
2023-02-09T13:39:37.010Z,14.10
2023-02-09T13:42:14.622Z,13.73
2023-02-09T13:44:44.438Z,13.33
2023-02-09T13:47:15.734Z,13.40
2023-02-09T13:49:42.737Z,13.10
2023-02-09T13:52:22.221Z,14.03
2023-02-09T13:54:52.888Z,14.27
2023-02-09T13:57:32.510Z,13.80
2023-02-09T14:00:10.008Z,12.57
2023-02-09T14:02:39.075Z,12.53
2023-02-09T14:05:08.357Z,13.10
2023-02-09T14:07:36.009Z,13.10
2023-02-09T14:10:11.720Z,13.73
2023-02-09T14:13:06.155Z,13.67
2023-02-09T14:15:51.387Z,13.10
2023-02-09T14:18:46.038Z,13.30
2023-02-09T14:21:15.971Z,13.60
2023-02-09T14:23:44.600Z,13.90
2023-02-09T14:26:14.577Z,13.60
2023-02-09T14:28:45.741Z,14.93
2023-02-09T14:31:22.778Z,14.30
2023-02-09T14:33:55.083Z,14.83
2023-02-09T14:36:32.625Z,13.80
2023-02-09T14:39:12.904Z,13.63
2023-02-09T14:41:39.712Z,13.73
2023-02-09T14:44:06.435Z,14.37
2023-02-09T14:46:58.958Z,13.23
2023-02-09T14:49:25.851Z,13.10
2023-02-09T14:52:10.787Z,13.33
2023-02-09T14:54:44.516Z,13.87
2023-02-09T14:57:11.409Z,13.80
2023-02-09T14:59:38.192Z,13.40
2023-02-09T15:02:22.266Z,13.97
2023-02-09T15:04:49.097Z,14.77
2023-02-09T15:07:19.477Z,14.30
2023-02-09T15:09:46.395Z,15.40
2023-02-09T15:12:24.224Z,14.33
2023-02-09T15:14:54.638Z,15.10
2023-02-09T15:17:28.103Z,14.17
2023-02-09T15:19:57.976Z,14.47
2023-02-09T15:22:27.234Z,15.13
2023-02-09T15:24:54.665Z,15.23
2023-02-09T15:27:29.531Z,15.30
2023-02-09T15:30:01.674Z,15.47
2023-02-09T15:32:29.926Z,15.50
2023-02-09T15:34:56.665Z,14.97
2023-02-09T15:37:24.395Z,15.57
2023-02-09T15:39:53.971Z,15.93
2023-02-09T15:42:39.121Z,15.97
2023-02-09T15:45:41.155Z,15.73
2023-02-09T15:48:08.229Z,15.00
2023-02-09T15:50:37.620Z,16.67
2023-02-09T15:53:05.879Z,16.23
2023-02-09T15:55:32.792Z,16.60
2023-02-09T15:58:02.380Z,16.33
2023-02-09T16:00:29.877Z,16.53
2023-02-09T16:02:58.458Z,18.27
2023-02-09T16:05:26.910Z,17.73
2023-02-09T16:07:53.839Z,17.90
2023-02-09T16:10:26.112Z,18.53
2023-02-09T16:12:53.029Z,18.63
2023-02-09T16:15:21.292Z,19.67
2023-02-09T16:17:48.173Z,19.23
2023-02-09T16:20:17.754Z,19.13
2023-02-09T16:22:48.651Z,18.30
2023-02-09T16:25:20.981Z,19.70
2023-02-09T16:27:47.858Z,18.93
2023-02-09T16:30:20.112Z,18.93
2023-02-09T16:32:47.135Z,20.07
2023-02-09T16:35:17.165Z,19.67
2023-02-09T16:37:45.162Z,18.67
2023-02-09T16:40:31.877Z,21.23
2023-02-09T16:42:59.940Z,19.93
2023-02-09T16:45:29.763Z,19.33
2023-02-09T16:47:59.084Z,19.30
2023-02-09T16:50:27.447Z,18.80
2023-02-09T16:52:57.233Z,19.13
2023-02-09T16:55:28.319Z,19.70
2023-02-09T16:57:56.122Z,20.73
2023-02-09T17:00:29.794Z,19.77
2023-02-09T17:03:16.430Z,20.80
2023-02-09T17:05:53.453Z,20.27
2023-02-09T17:08:25.386Z,21.40
2023-02-09T17:10:54.792Z,20.27
2023-02-09T17:13:24.180Z,20.83
2023-02-09T17:15:52.729Z,19.57
2023-02-09T17:18:24.549Z,21.13
2023-02-09T17:21:02.224Z,21.30
2023-02-09T17:23:29.473Z,23.03
2023-02-09T17:25:56.424Z,22.50
2023-02-09T17:28:24.411Z,21.67
2023-02-09T17:30:51.888Z,21.40
2023-02-09T17:33:26.559Z,22.17
2023-02-09T17:36:22.819Z,21.20
2023-02-09T17:38:41.540Z,21.93
2023-02-09T17:41:22.780Z,21.67
2023-02-09T17:43:52.243Z,21.73
2023-02-09T17:46:19.367Z,21.33
2023-02-09T17:48:46.888Z,20.60
2023-02-09T17:51:31.839Z,20.20
2023-02-09T17:53:59.036Z,21.40
2023-02-09T17:56:26.018Z,19.67
2023-02-09T17:58:52.832Z,20.37
2023-02-09T18:01:27.070Z,20.87
2023-02-09T18:03:58.726Z,20.20
2023-02-09T18:06:33.602Z,20.93
2023-02-09T18:09:01.788Z,20.87
2023-02-09T18:11:45.042Z,22.33
2023-02-09T18:14:16.107Z,21.70
2023-02-09T18:16:46.813Z,21.00
2023-02-09T18:19:14.005Z,20.13
2023-02-09T18:21:47.976Z,20.87
2023-02-09T18:24:15.347Z,22.03
2023-02-09T18:26:44.438Z,21.60
2023-02-09T18:29:11.284Z,21.17
2023-02-09T18:31:40.585Z,21.53
2023-02-09T18:34:09.877Z,20.57
2023-02-09T18:36:36.646Z,20.63
2023-02-09T18:39:03.502Z,21.37
2023-02-09T18:41:30.298Z,20.83
2023-02-09T18:43:59.519Z,21.50
2023-02-09T18:46:28.584Z,20.87
2023-02-09T18:48:55.376Z,22.13
2023-02-09T18:51:22.492Z,21.00
2023-02-09T18:53:51.262Z,20.47
2023-02-09T18:56:25.802Z,22.07
2023-02-09T18:58:52.652Z,21.40
2023-02-09T19:01:20.247Z,21.67
2023-02-09T19:03:51.482Z,22.47
2023-02-09T19:06:20.463Z,22.00
2023-02-09T19:08:47.580Z,22.73
2023-02-09T19:11:15.374Z,22.97
2023-02-09T19:13:42.242Z,24.07
2023-02-09T19:16:12.326Z,23.70
2023-02-09T19:18:39.566Z,22.33
2023-02-09T19:21:09.068Z,22.63
2023-02-09T19:23:35.858Z,23.40
2023-02-09T19:26:05.472Z,24.27
2023-02-09T19:28:32.292Z,24.90
2023-02-09T19:30:59.148Z,23.87
2023-02-09T19:33:25.941Z,25.00
2023-02-09T19:36:01.327Z,24.40
2023-02-09T19:38:30.618Z,23.57
2023-02-09T19:41:10.388Z,24.07
2023-02-09T19:43:38.212Z,24.57
2023-02-09T19:46:05.868Z,23.27
2023-02-09T19:48:35.142Z,24.83
2023-02-09T19:51:01.950Z,23.80
2023-02-09T19:53:28.725Z,24.70
2023-02-09T19:55:55.764Z,24.37
2023-02-09T19:58:22.779Z,25.43
2023-02-09T20:00:50.393Z,24.70
2023-02-09T20:03:19.682Z,25.23
2023-02-09T20:05:46.745Z,25.17
2023-02-09T20:08:15.916Z,25.67
2023-02-09T20:10:44.195Z,24.07
2023-02-09T20:13:15.391Z,24.80
2023-02-09T20:15:43.589Z,25.33
2023-02-09T20:18:11.450Z,24.30
2023-02-09T20:20:45.467Z,24.50
2023-02-09T20:23:12.503Z,24.83
2023-02-09T20:25:42.979Z,24.57
2023-02-09T20:28:12.917Z,24.23
2023-02-09T20:30:43.948Z,24.93
2023-02-09T20:33:11.048Z,25.20
2023-02-09T20:35:41.761Z,23.70
2023-02-09T20:38:08.641Z,25.13
2023-02-09T20:40:35.594Z,25.53
2023-02-09T20:43:20.807Z,26.33
2023-02-09T20:46:08.688Z,25.20
2023-02-09T20:48:35.494Z,25.23
2023-02-09T20:51:05.131Z,25.20
2023-02-09T20:53:32.049Z,25.37
2023-02-09T20:56:00.939Z,24.53
2023-02-09T20:58:27.720Z,24.57
2023-02-09T21:00:54.565Z,25.30
2023-02-09T21:03:23.486Z,23.93
2023-02-09T21:05:50.250Z,26.30
2023-02-09T21:08:17.067Z,24.40
2023-02-09T21:10:46.465Z,23.90
2023-02-09T21:13:13.392Z,23.23
2023-02-09T21:15:43.097Z,23.93
2023-02-09T21:18:10.034Z,22.83
2023-02-09T21:20:39.332Z,22.10
2023-02-09T21:23:08.261Z,22.67
2023-02-09T21:25:35.912Z,22.80
2023-02-09T21:28:02.773Z,21.93
2023-02-09T21:30:29.708Z,22.13
2023-02-09T21:33:00.568Z,21.00
2023-02-09T21:35:27.355Z,21.00
2023-02-09T21:37:56.291Z,21.80
2023-02-09T21:40:23.199Z,20.60
2023-02-09T21:42:52.547Z,20.03
2023-02-09T21:45:21.627Z,20.83
2023-02-09T21:47:48.448Z,20.67
2023-02-09T21:50:17.692Z,20.90
2023-02-09T21:52:44.485Z,20.53
2023-02-09T21:55:14.043Z,20.03
2023-02-09T21:57:41.065Z,20.07
2023-02-09T22:00:09.436Z,20.00
2023-02-09T22:02:36.210Z,19.80
2023-02-09T22:05:03.124Z,20.00
2023-02-09T22:07:29.898Z,19.83
2023-02-09T22:09:56.726Z,20.80
2023-02-09T22:12:26.006Z,20.97
2023-02-09T22:14:52.788Z,21.13
2023-02-09T22:17:19.542Z,21.77
2023-02-09T22:19:46.535Z,20.43
2023-02-09T22:22:13.344Z,19.07
2023-02-09T22:24:40.203Z,21.43
2023-02-09T22:27:07.019Z,20.37
2023-02-09T22:29:34.528Z,20.83
2023-02-09T22:32:01.427Z,20.70
2023-02-09T22:34:28.188Z,20.10
2023-02-09T22:36:55.027Z,20.13
2023-02-09T22:39:21.964Z,20.37
2023-02-09T22:41:48.900Z,20.30
2023-02-09T22:44:16.882Z,21.10
2023-02-09T22:46:46.775Z,21.00
2023-02-09T22:49:16.922Z,20.37
2023-02-09T22:51:43.952Z,21.03
2023-02-09T22:54:10.970Z,20.77
2023-02-09T22:56:37.893Z,20.63
2023-02-09T22:59:04.705Z,21.30
2023-02-09T23:01:31.572Z,21.00
2023-02-09T23:03:58.734Z,20.67
2023-02-09T23:06:30.031Z,19.87
2023-02-09T23:09:00.674Z,19.67
2023-02-09T23:11:28.016Z,20.50
2023-02-09T23:14:08.960Z,20.00
2023-02-09T23:16:36.394Z,19.90
2023-02-09T23:19:05.446Z,20.07
2023-02-09T23:21:34.340Z,20.87
2023-02-09T23:24:03.675Z,19.73
2023-02-09T23:26:33.153Z,20.50
2023-02-09T23:29:01.430Z,20.00
2023-02-09T23:31:28.470Z,19.33
2023-02-09T23:33:55.375Z,19.73
2023-02-09T23:36:25.520Z,20.83
2023-02-09T23:38:55.703Z,19.37
2023-02-09T23:41:22.718Z,19.23
2023-02-09T23:43:51.678Z,19.67
2023-02-09T23:46:20.610Z,19.00
2023-02-09T23:48:49.756Z,19.53
2023-02-09T23:51:26.768Z,18.93
2023-02-09T23:53:56.281Z,18.13
2023-02-09T23:56:23.154Z,17.87
2023-02-09T23:58:53.413Z,18.37
